Claremont, NH (03743)

11:45 PM EDT on July 01, 2015 (GMT -0400)
Airport Hill | | Change Station
CLOSE
Current Station
Personal Weather Station
Location: Claremont, NH
Elevation: 545 ft
Nearby Weather Stations

Elev 545 ft 43.37 °N, 72.37 °W | Updated 16 seconds ago

Mostly Cloudy
Mostly Cloudy
61.0 °F
Feels Like 61.0 °F
N
0.0
Wind Variable Wind from NNE
Gusts 0.0 mph

Today
High -- | Low -- °F
--% Chance of Precip.
Yesterday
High -- | Low -- °F
Precip. -- in
5:12 AM 8:33 PM
Full, 100% visible
Pressure 29.80 in
Visibility 10.0 miles
Clouds Overcast 4200 ft
Dew Point 60 °F
Humidity 98%
Rainfall 0.78 in
Snow Depth Not available.
UV 0 out of 12
Pollen 1.20 out of 12
Air Quality Not available.
Flu Activity Not available.
METAR KVSF 020254Z AUTO 30003KT 10SM OVC042 17/15 A2980 RMK AO2 SLP089 T01720150 53024 TSNO

More Conditions Fewer Conditions

Pressure 29.80 in
Visibility 10.0 miles
Clouds Overcast 4200 ft
Dew Point 60 °F
Humidity 98%
Rainfall 0.78 in
Snow Depth Not available.
UV 0 out of 12
Pollen 1.20 out of 12
Air Quality Not available.
Flu Activity Not available.
METAR KVSF 020254Z AUTO 30003KT 10SM OVC042 17/15 A2980 RMK AO2 SLP089 T01720150 53024 TSNO

More Conditions Fewer Conditions

10-Day Weather Forecast

×

Almanac

Astronomy

Jul. 01, 2015 Rise Set
Actual Time
Civil Twilight
Nautical Twilight
Astronomical Twilight
Moon
Length of Visible Light
Length of Day
Tomorrow will be .
, % of the Moon is Illuminated

Today's Extremes

State Highs State Lows

Community

WunderPhotos

Upload Photos

1,834,395 photos uploaded!

WunderBlogs® & News

Nearby

Air Quality

  Air Quality AQ Index Pollutant
Not available.

Snow Depth

Station Depth Elevation

Earthquake Activity

City Distance Mag. Time & Date
Minimum magnitude displayed is 2.5.

Coastal Water Temperatures

Place Temperature

Stations

Nearby Weather Stations

Station Location Temp. Windchill Dew Point Humidity Wind Precip. Elev Updated Type